sensor_id;sensor_type;location;lat;lon;timestamp;P1;durP1;ratioP1;P2;durP2;ratioP2
72354;SDS011;60314;55.040;73.076;2022-08-11T00:01:00;248.55;;;121.28;;
72354;SDS011;60314;55.040;73.076;2022-08-11T00:03:19;253.95;;;122.35;;
72354;SDS011;60314;55.040;73.076;2022-08-11T00:05:47;254.73;;;126.47;;
72354;SDS011;60314;55.040;73.076;2022-08-11T00:08:20;261.95;;;129.10;;
72354;SDS011;60314;55.040;73.076;2022-08-11T00:10:56;270.67;;;128.57;;
72354;SDS011;60314;55.040;73.076;2022-08-11T00:13:33;276.73;;;130.60;;
72354;SDS011;60314;55.040;73.076;2022-08-11T00:16:20;260.10;;;128.55;;
72354;SDS011;60314;55.040;73.076;2022-08-11T00:18:53;273.00;;;130.88;;
72354;SDS011;60314;55.040;73.076;2022-08-11T00:21:21;280.63;;;132.65;;
72354;SDS011;60314;55.040;73.076;2022-08-11T00:23:54;265.13;;;128.43;;
72354;SDS011;60314;55.040;73.076;2022-08-11T00:26:24;278.80;;;131.48;;
72354;SDS011;60314;55.040;73.076;2022-08-11T00:28:51;279.95;;;129.25;;
72354;SDS011;60314;55.040;73.076;2022-08-11T00:31:28;273.35;;;134.95;;
72354;SDS011;60314;55.040;73.076;2022-08-11T00:33:57;282.25;;;134.00;;
72354;SDS011;60314;55.040;73.076;2022-08-11T00:36:26;270.08;;;131.70;;
72354;SDS011;60314;55.040;73.076;2022-08-11T00:38:56;284.48;;;137.65;;
72354;SDS011;60314;55.040;73.076;2022-08-11T00:43:00;288.38;;;135.95;;
72354;SDS011;60314;55.040;73.076;2022-08-11T00:46:08;294.30;;;137.88;;
72354;SDS011;60314;55.040;73.076;2022-08-11T00:48:49;292.77;;;142.60;;
72354;SDS011;60314;55.040;73.076;2022-08-11T01:00:24;290.67;;;138.10;;
72354;SDS011;60314;55.040;73.076;2022-08-11T01:05:50;299.63;;;142.32;;
72354;SDS011;60314;55.040;73.076;2022-08-11T01:16:33;274.23;;;132.05;;
72354;SDS011;60314;55.040;73.076;2022-08-11T01:37:01;261.15;;;122.60;;
72354;SDS011;60314;55.040;73.076;2022-08-11T02:18:08;242.70;;;108.72;;
72354;SDS011;60314;55.040;73.076;2022-08-11T02:20:57;249.43;;;113.63;;
72354;SDS011;60314;55.040;73.076;2022-08-11T02:23:58;242.43;;;113.22;;
72354;SDS011;60314;55.040;73.076;2022-08-11T02:26:34;254.60;;;108.43;;
72354;SDS011;60314;55.040;73.076;2022-08-11T02:32:04;244.63;;;111.43;;
72354;SDS011;60314;55.040;73.076;2022-08-11T02:35:28;244.98;;;109.95;;
72354;SDS011;60314;55.040;73.076;2022-08-11T02:46:17;248.95;;;108.07;;
72354;SDS011;60314;55.040;73.076;2022-08-11T02:52:17;234.07;;;106.88;;
72354;SDS011;60314;55.040;73.076;2022-08-11T02:55:09;228.55;;;105.93;;
72354;SDS011;60314;55.040;73.076;2022-08-11T02:57:56;238.95;;;109.53;;
72354;SDS011;60314;55.040;73.076;2022-08-11T03:00:29;246.50;;;111.50;;
72354;SDS011;60314;55.040;73.076;2022-08-11T03:09:13;235.77;;;108.25;;
72354;SDS011;60314;55.040;73.076;2022-08-11T03:15:00;237.50;;;113.43;;
72354;SDS011;60314;55.040;73.076;2022-08-11T03:23:55;247.85;;;109.40;;
72354;SDS011;60314;55.040;73.076;2022-08-11T03:26:29;241.45;;;111.43;;
72354;SDS011;60314;55.040;73.076;2022-08-11T03:29:10;248.95;;;109.95;;
72354;SDS011;60314;55.040;73.076;2022-08-11T03:31:48;229.43;;;103.60;;
72354;SDS011;60314;55.040;73.076;2022-08-11T03:34:36;249.68;;;108.03;;
72354;SDS011;60314;55.040;73.076;2022-08-11T03:46:18;231.52;;;104.45;;
72354;SDS011;60314;55.040;73.076;2022-08-11T03:49:14;229.18;;;100.28;;
72354;SDS011;60314;55.040;73.076;2022-08-11T03:52:30;235.57;;;106.63;;
72354;SDS011;60314;55.040;73.076;2022-08-11T03:55:18;223.23;;;97.75;;
72354;SDS011;60314;55.040;73.076;2022-08-11T04:35:31;193.27;;;92.82;;
72354;SDS011;60314;55.040;73.076;2022-08-11T04:51:29;191.57;;;87.15;;
72354;SDS011;60314;55.040;73.076;2022-08-11T04:54:04;184.00;;;85.78;;
72354;SDS011;60314;55.040;73.076;2022-08-11T05:00:48;191.18;;;85.97;;
72354;SDS011;60314;55.040;73.076;2022-08-11T05:04:02;182.70;;;87.40;;
72354;SDS011;60314;55.040;73.076;2022-08-11T05:10:17;188.20;;;89.93;;
72354;SDS011;60314;55.040;73.076;2022-08-11T05:12:49;173.65;;;85.70;;
72354;SDS011;60314;55.040;73.076;2022-08-11T05:15:23;184.23;;;87.03;;
72354;SDS011;60314;55.040;73.076;2022-08-11T05:18:25;178.73;;;88.07;;
72354;SDS011;60314;55.040;73.076;2022-08-11T05:21:12;181.85;;;84.55;;
72354;SDS011;60314;55.040;73.076;2022-08-11T05:24:10;170.85;;;85.72;;
72354;SDS011;60314;55.040;73.076;2022-08-11T05:27:01;169.98;;;84.22;;
72354;SDS011;60314;55.040;73.076;2022-08-11T05:30:08;169.35;;;81.07;;
72354;SDS011;60314;55.040;73.076;2022-08-11T05:32:56;170.38;;;82.68;;
72354;SDS011;60314;55.040;73.076;2022-08-11T05:36:10;162.57;;;79.00;;
72354;SDS011;60314;55.040;73.076;2022-08-11T05:38:53;167.13;;;80.03;;
72354;SDS011;60314;55.040;73.076;2022-08-11T05:41:43;167.77;;;80.20;;
72354;SDS011;60314;55.040;73.076;2022-08-11T05:44:29;162.80;;;81.15;;
72354;SDS011;60314;55.040;73.076;2022-08-11T05:47:24;172.48;;;86.07;;
72354;SDS011;60314;55.040;73.076;2022-08-11T05:50:11;159.15;;;81.20;;
72354;SDS011;60314;55.040;73.076;2022-08-11T05:52:57;166.52;;;79.68;;
72354;SDS011;60314;55.040;73.076;2022-08-11T05:55:53;170.32;;;84.25;;
72354;SDS011;60314;55.040;73.076;2022-08-11T05:58:41;172.35;;;82.05;;
72354;SDS011;60314;55.040;73.076;2022-08-11T06:01:22;162.57;;;83.50;;
72354;SDS011;60314;55.040;73.076;2022-08-11T06:03:51;159.68;;;80.47;;
72354;SDS011;60314;55.040;73.076;2022-08-11T06:06:45;177.52;;;82.55;;
72354;SDS011;60314;55.040;73.076;2022-08-11T06:09:35;166.95;;;80.97;;
72354;SDS011;60314;55.040;73.076;2022-08-11T06:12:04;163.52;;;80.07;;
72354;SDS011;60314;55.040;73.076;2022-08-11T06:14:34;163.23;;;78.68;;
72354;SDS011;60314;55.040;73.076;2022-08-11T06:17:07;154.40;;;76.07;;
72354;SDS011;60314;55.040;73.076;2022-08-11T06:19:37;163.48;;;77.72;;
72354;SDS011;60314;55.040;73.076;2022-08-11T06:22:09;159.68;;;79.88;;
72354;SDS011;60314;55.040;73.076;2022-08-11T06:24:40;163.80;;;74.97;;
72354;SDS011;60314;55.040;73.076;2022-08-11T06:27:21;153.30;;;77.82;;
72354;SDS011;60314;55.040;73.076;2022-08-11T06:29:51;159.57;;;79.82;;
72354;SDS011;60314;55.040;73.076;2022-08-11T06:32:20;155.10;;;76.38;;
72354;SDS011;60314;55.040;73.076;2022-08-11T06:37:40;154.05;;;72.53;;
72354;SDS011;60314;55.040;73.076;2022-08-11T06:46:28;154.63;;;76.35;;
72354;SDS011;60314;55.040;73.076;2022-08-11T06:49:07;156.10;;;76.50;;
72354;SDS011;60314;55.040;73.076;2022-08-11T06:52:11;146.10;;;74.18;;
72354;SDS011;60314;55.040;73.076;2022-08-11T06:54:40;153.45;;;74.03;;
72354;SDS011;60314;55.040;73.076;2022-08-11T06:57:13;163.73;;;77.32;;
72354;SDS011;60314;55.040;73.076;2022-08-11T06:59:58;151.82;;;77.43;;
72354;SDS011;60314;55.040;73.076;2022-08-11T07:02:51;149.32;;;77.45;;
72354;SDS011;60314;55.040;73.076;2022-08-11T07:14:29;151.73;;;72.93;;
72354;SDS011;60314;55.040;73.076;2022-08-11T07:17:16;149.93;;;74.63;;
72354;SDS011;60314;55.040;73.076;2022-08-11T07:19:49;162.93;;;76.28;;
72354;SDS011;60314;55.040;73.076;2022-08-11T07:22:37;150.88;;;74.22;;
72354;SDS011;60314;55.040;73.076;2022-08-11T07:25:46;147.80;;;73.10;;
72354;SDS011;60314;55.040;73.076;2022-08-11T07:28:39;148.40;;;67.70;;
72354;SDS011;60314;55.040;73.076;2022-08-11T07:39:40;146.75;;;71.78;;
72354;SDS011;60314;55.040;73.076;2022-08-11T07:42:10;147.15;;;72.60;;
72354;SDS011;60314;55.040;73.076;2022-08-11T07:44:39;151.32;;;70.20;;
72354;SDS011;60314;55.040;73.076;2022-08-11T07:47:25;140.20;;;65.85;;
72354;SDS011;60314;55.040;73.076;2022-08-11T07:50:15;144.35;;;69.90;;
72354;SDS011;60314;55.040;73.076;2022-08-11T07:53:01;141.02;;;66.70;;
72354;SDS011;60314;55.040;73.076;2022-08-11T07:55:41;141.02;;;66.18;;
72354;SDS011;60314;55.040;73.076;2022-08-11T07:58:08;143.57;;;62.65;;
72354;SDS011;60314;55.040;73.076;2022-08-11T08:00:58;133.52;;;64.75;;
72354;SDS011;60314;55.040;73.076;2022-08-11T08:03:45;134.10;;;63.25;;
72354;SDS011;60314;55.040;73.076;2022-08-11T08:06:33;144.73;;;67.47;;
72354;SDS011;60314;55.040;73.076;2022-08-11T08:09:26;141.80;;;63.13;;
72354;SDS011;60314;55.040;73.076;2022-08-11T08:12:12;135.07;;;65.30;;
72354;SDS011;60314;55.040;73.076;2022-08-11T08:14:59;143.25;;;67.18;;
72354;SDS011;60314;55.040;73.076;2022-08-11T08:17:49;145.63;;;66.90;;
72354;SDS011;60314;55.040;73.076;2022-08-11T08:21:04;144.05;;;69.25;;
72354;SDS011;60314;55.040;73.076;2022-08-11T08:23:12;150.45;;;71.25;;
72354;SDS011;60314;55.040;73.076;2022-08-11T08:25:41;137.75;;;68.85;;
72354;SDS011;60314;55.040;73.076;2022-08-11T08:28:10;136.55;;;69.20;;
72354;SDS011;60314;55.040;73.076;2022-08-11T08:30:44;132.15;;;62.78;;
72354;SDS011;60314;55.040;73.076;2022-08-11T08:33:20;132.13;;;64.03;;
72354;SDS011;60314;55.040;73.076;2022-08-11T08:35:59;136.30;;;64.70;;
72354;SDS011;60314;55.040;73.076;2022-08-11T08:38:38;126.55;;;63.25;;
72354;SDS011;60314;55.040;73.076;2022-08-11T08:41:28;127.93;;;58.90;;
72354;SDS011;60314;55.040;73.076;2022-08-11T08:43:58;109.22;;;57.40;;
72354;SDS011;60314;55.040;73.076;2022-08-11T08:46:33;113.97;;;58.08;;
72354;SDS011;60314;55.040;73.076;2022-08-11T08:49:04;114.78;;;59.47;;
72354;SDS011;60314;55.040;73.076;2022-08-11T08:51:32;111.38;;;55.58;;
72354;SDS011;60314;55.040;73.076;2022-08-11T08:54:03;102.22;;;53.28;;
72354;SDS011;60314;55.040;73.076;2022-08-11T08:56:33;104.05;;;54.30;;
72354;SDS011;60314;55.040;73.076;2022-08-11T08:59:13;94.28;;;51.25;;
72354;SDS011;60314;55.040;73.076;2022-08-11T09:01:47;97.88;;;51.60;;
72354;SDS011;60314;55.040;73.076;2022-08-11T09:04:23;98.82;;;50.90;;
72354;SDS011;60314;55.040;73.076;2022-08-11T09:07:08;144.50;;;51.50;;
72354;SDS011;60314;55.040;73.076;2022-08-11T09:09:40;96.18;;;49.63;;
72354;SDS011;60314;55.040;73.076;2022-08-11T09:12:10;92.40;;;46.08;;
72354;SDS011;60314;55.040;73.076;2022-08-11T09:14:38;89.78;;;48.83;;
72354;SDS011;60314;55.040;73.076;2022-08-11T09:17:26;87.50;;;45.05;;
72354;SDS011;60314;55.040;73.076;2022-08-11T09:19:55;104.30;;;46.20;;
72354;SDS011;60314;55.040;73.076;2022-08-11T09:22:31;94.18;;;47.03;;
72354;SDS011;60314;55.040;73.076;2022-08-11T09:25:18;98.88;;;51.03;;
72354;SDS011;60314;55.040;73.076;2022-08-11T09:28:06;92.88;;;49.75;;
72354;SDS011;60314;55.040;73.076;2022-08-11T09:30:36;91.93;;;49.03;;
72354;SDS011;60314;55.040;73.076;2022-08-11T09:33:12;92.63;;;48.90;;
72354;SDS011;60314;55.040;73.076;2022-08-11T09:35:41;89.22;;;46.42;;
72354;SDS011;60314;55.040;73.076;2022-08-11T09:38:27;97.10;;;50.70;;
72354;SDS011;60314;55.040;73.076;2022-08-11T09:41:12;88.90;;;48.80;;
72354;SDS011;60314;55.040;73.076;2022-08-11T09:44:08;93.90;;;49.70;;
72354;SDS011;60314;55.040;73.076;2022-08-11T09:46:53;94.53;;;52.15;;
72354;SDS011;60314;55.040;73.076;2022-08-11T09:49:26;96.22;;;52.00;;
72354;SDS011;60314;55.040;73.076;2022-08-11T09:51:53;101.15;;;50.15;;
72354;SDS011;60314;55.040;73.076;2022-08-11T09:54:23;94.53;;;53.47;;
72354;SDS011;60314;55.040;73.076;2022-08-11T09:56:55;100.47;;;53.10;;
72354;SDS011;60314;55.040;73.076;2022-08-11T09:59:41;98.07;;;51.42;;
72354;SDS011;60314;55.040;73.076;2022-08-11T10:02:07;91.85;;;48.55;;
72354;SDS011;60314;55.040;73.076;2022-08-11T10:04:42;100.47;;;50.83;;
72354;SDS011;60314;55.040;73.076;2022-08-11T10:07:14;98.35;;;49.85;;
72354;SDS011;60314;55.040;73.076;2022-08-11T10:10:02;103.47;;;49.97;;
72354;SDS011;60314;55.040;73.076;2022-08-11T10:12:34;101.28;;;50.85;;
72354;SDS011;60314;55.040;73.076;2022-08-11T10:15:06;97.03;;;48.22;;
72354;SDS011;60314;55.040;73.076;2022-08-11T10:18:10;91.38;;;47.97;;
72354;SDS011;60314;55.040;73.076;2022-08-11T10:23:31;86.95;;;46.05;;
72354;SDS011;60314;55.040;73.076;2022-08-11T10:26:18;87.32;;;43.13;;
72354;SDS011;60314;55.040;73.076;2022-08-11T10:29:04;97.22;;;48.15;;
72354;SDS011;60314;55.040;73.076;2022-08-11T10:31:55;84.93;;;44.22;;
72354;SDS011;60314;55.040;73.076;2022-08-11T10:34:42;84.30;;;41.88;;
72354;SDS011;60314;55.040;73.076;2022-08-11T10:37:10;85.65;;;44.63;;
72354;SDS011;60314;55.040;73.076;2022-08-11T10:39:40;90.65;;;45.63;;
72354;SDS011;60314;55.040;73.076;2022-08-11T10:42:08;89.90;;;44.50;;
72354;SDS011;60314;55.040;73.076;2022-08-11T10:45:04;87.47;;;44.28;;
72354;SDS011;60314;55.040;73.076;2022-08-11T10:47:53;84.28;;;43.15;;
72354;SDS011;60314;55.040;73.076;2022-08-11T10:50:21;90.65;;;45.47;;
72354;SDS011;60314;55.040;73.076;2022-08-11T10:53:07;85.93;;;43.70;;
72354;SDS011;60314;55.040;73.076;2022-08-11T10:55:53;82.75;;;43.35;;
72354;SDS011;60314;55.040;73.076;2022-08-11T10:58:39;81.90;;;42.70;;
72354;SDS011;60314;55.040;73.076;2022-08-11T11:01:26;85.55;;;45.78;;
72354;SDS011;60314;55.040;73.076;2022-08-11T11:03:59;91.55;;;44.92;;
72354;SDS011;60314;55.040;73.076;2022-08-11T11:06:37;92.78;;;47.22;;
72354;SDS011;60314;55.040;73.076;2022-08-11T11:11:46;86.22;;;44.40;;
72354;SDS011;60314;55.040;73.076;2022-08-11T11:14:37;91.85;;;43.90;;
72354;SDS011;60314;55.040;73.076;2022-08-11T11:17:36;94.35;;;47.88;;
72354;SDS011;60314;55.040;73.076;2022-08-11T11:31:58;87.57;;;43.75;;
72354;SDS011;60314;55.040;73.076;2022-08-11T11:37:30;89.78;;;42.53;;
72354;SDS011;60314;55.040;73.076;2022-08-11T11:40:00;91.00;;;44.87;;
72354;SDS011;60314;55.040;73.076;2022-08-11T11:42:35;82.60;;;38.75;;
72354;SDS011;60314;55.040;73.076;2022-08-11T11:45:14;87.35;;;42.03;;
72354;SDS011;60314;55.040;73.076;2022-08-11T11:47:47;85.45;;;41.65;;
72354;SDS011;60314;55.040;73.076;2022-08-11T11:50:28;84.53;;;41.55;;
72354;SDS011;60314;55.040;73.076;2022-08-11T11:52:57;94.05;;;44.70;;
72354;SDS011;60314;55.040;73.076;2022-08-11T11:55:25;93.38;;;45.00;;
72354;SDS011;60314;55.040;73.076;2022-08-11T11:58:02;85.82;;;43.15;;
72354;SDS011;60314;55.040;73.076;2022-08-11T12:00:48;87.55;;;44.17;;
72354;SDS011;60314;55.040;73.076;2022-08-11T12:03:36;89.80;;;41.33;;
72354;SDS011;60314;55.040;73.076;2022-08-11T12:06:04;88.80;;;43.70;;
72354;SDS011;60314;55.040;73.076;2022-08-11T12:08:32;97.00;;;44.13;;
72354;SDS011;60314;55.040;73.076;2022-08-11T12:11:02;89.72;;;40.30;;
72354;SDS011;60314;55.040;73.076;2022-08-11T12:13:55;93.68;;;45.78;;
72354;SDS011;60314;55.040;73.076;2022-08-11T12:16:25;98.80;;;45.10;;
72354;SDS011;60314;55.040;73.076;2022-08-11T12:18:53;93.97;;;44.13;;
72354;SDS011;60314;55.040;73.076;2022-08-11T12:21:26;99.50;;;46.67;;
72354;SDS011;60314;55.040;73.076;2022-08-11T12:23:54;95.93;;;45.58;;
72354;SDS011;60314;55.040;73.076;2022-08-11T12:26:41;94.53;;;47.53;;
72354;SDS011;60314;55.040;73.076;2022-08-11T12:29:19;98.43;;;47.90;;
72354;SDS011;60314;55.040;73.076;2022-08-11T12:31:52;90.35;;;46.95;;
72354;SDS011;60314;55.040;73.076;2022-08-11T12:34:20;97.80;;;49.50;;
72354;SDS011;60314;55.040;73.076;2022-08-11T12:36:50;103.68;;;49.67;;
72354;SDS011;60314;55.040;73.076;2022-08-11T12:39:23;106.13;;;49.83;;
72354;SDS011;60314;55.040;73.076;2022-08-11T12:42:18;97.75;;;48.63;;
72354;SDS011;60314;55.040;73.076;2022-08-11T12:45:07;101.25;;;50.20;;
72354;SDS011;60314;55.040;73.076;2022-08-11T12:50:51;96.30;;;48.03;;
72354;SDS011;60314;55.040;73.076;2022-08-11T12:53:41;99.28;;;48.58;;
72354;SDS011;60314;55.040;73.076;2022-08-11T12:56:11;106.68;;;50.67;;
72354;SDS011;60314;55.040;73.076;2022-08-11T12:58:56;96.55;;;47.72;;
72354;SDS011;60314;55.040;73.076;2022-08-11T13:01:53;99.45;;;47.88;;
72354;SDS011;60314;55.040;73.076;2022-08-11T13:04:43;92.13;;;46.67;;
72354;SDS011;60314;55.040;73.076;2022-08-11T13:07:26;99.72;;;48.45;;
72354;SDS011;60314;55.040;73.076;2022-08-11T13:10:03;102.20;;;47.28;;
72354;SDS011;60314;55.040;73.076;2022-08-11T13:12:40;105.95;;;49.17;;
72354;SDS011;60314;55.040;73.076;2022-08-11T13:15:23;101.50;;;48.60;;
72354;SDS011;60314;55.040;73.076;2022-08-11T13:17:53;98.75;;;46.95;;
72354;SDS011;60314;55.040;73.076;2022-08-11T13:20:21;98.30;;;46.88;;
72354;SDS011;60314;55.040;73.076;2022-08-11T13:22:50;103.45;;;49.10;;
72354;SDS011;60314;55.040;73.076;2022-08-11T13:25:20;102.55;;;49.40;;
72354;SDS011;60314;55.040;73.076;2022-08-11T13:27:49;101.93;;;46.90;;
72354;SDS011;60314;55.040;73.076;2022-08-11T13:30:18;102.00;;;47.72;;
72354;SDS011;60314;55.040;73.076;2022-08-11T13:33:03;108.05;;;48.08;;
72354;SDS011;60314;55.040;73.076;2022-08-11T13:35:32;95.47;;;45.35;;
72354;SDS011;60314;55.040;73.076;2022-08-11T13:38:02;100.63;;;45.53;;
72354;SDS011;60314;55.040;73.076;2022-08-11T13:40:30;96.07;;;46.60;;
72354;SDS011;60314;55.040;73.076;2022-08-11T13:42:58;98.78;;;46.22;;
72354;SDS011;60314;55.040;73.076;2022-08-11T13:45:35;97.50;;;46.83;;
72354;SDS011;60314;55.040;73.076;2022-08-11T13:48:05;107.70;;;47.80;;
72354;SDS011;60314;55.040;73.076;2022-08-11T13:50:33;99.55;;;44.92;;
72354;SDS011;60314;55.040;73.076;2022-08-11T13:53:20;94.75;;;43.90;;
72354;SDS011;60314;55.040;73.076;2022-08-11T13:55:50;91.18;;;45.17;;
72354;SDS011;60314;55.040;73.076;2022-08-11T13:58:20;97.45;;;45.28;;
72354;SDS011;60314;55.040;73.076;2022-08-11T14:00:49;96.85;;;45.22;;
72354;SDS011;60314;55.040;73.076;2022-08-11T14:03:22;104.05;;;49.08;;
72354;SDS011;60314;55.040;73.076;2022-08-11T14:05:52;98.28;;;46.78;;
72354;SDS011;60314;55.040;73.076;2022-08-11T14:08:25;95.95;;;47.95;;
72354;SDS011;60314;55.040;73.076;2022-08-11T14:10:57;106.50;;;46.45;;
72354;SDS011;60314;55.040;73.076;2022-08-11T14:13:45;96.35;;;42.67;;
72354;SDS011;60314;55.040;73.076;2022-08-11T14:16:15;106.07;;;48.95;;
72354;SDS011;60314;55.040;73.076;2022-08-11T14:19:11;116.70;;;50.92;;
72354;SDS011;60314;55.040;73.076;2022-08-11T14:21:40;108.43;;;48.85;;
72354;SDS011;60314;55.040;73.076;2022-08-11T14:24:28;109.35;;;48.22;;
72354;SDS011;60314;55.040;73.076;2022-08-11T14:26:57;103.32;;;46.08;;
72354;SDS011;60314;55.040;73.076;2022-08-11T14:31:58;98.43;;;45.33;;
72354;SDS011;60314;55.040;73.076;2022-08-11T14:34:28;112.20;;;49.50;;
72354;SDS011;60314;55.040;73.076;2022-08-11T14:37:00;100.65;;;47.25;;
72354;SDS011;60314;55.040;73.076;2022-08-11T14:39:33;104.45;;;49.33;;
72354;SDS011;60314;55.040;73.076;2022-08-11T14:42:04;107.43;;;48.80;;
72354;SDS011;60314;55.040;73.076;2022-08-11T14:44:51;103.93;;;46.97;;
72354;SDS011;60314;55.040;73.076;2022-08-11T14:47:49;100.63;;;47.70;;
72354;SDS011;60314;55.040;73.076;2022-08-11T14:50:23;101.70;;;46.53;;
72354;SDS011;60314;55.040;73.076;2022-08-11T14:52:53;105.28;;;46.60;;
72354;SDS011;60314;55.040;73.076;2022-08-11T14:55:22;98.43;;;45.67;;
72354;SDS011;60314;55.040;73.076;2022-08-11T14:58:19;91.53;;;44.35;;
72354;SDS011;60314;55.040;73.076;2022-08-11T15:01:06;96.18;;;44.22;;
72354;SDS011;60314;55.040;73.076;2022-08-11T15:04:04;103.32;;;45.55;;
72354;SDS011;60314;55.040;73.076;2022-08-11T15:06:31;101.70;;;46.33;;
72354;SDS011;60314;55.040;73.076;2022-08-11T15:08:59;100.22;;;47.00;;
72354;SDS011;60314;55.040;73.076;2022-08-11T15:11:31;106.85;;;48.00;;
72354;SDS011;60314;55.040;73.076;2022-08-11T15:14:16;117.22;;;51.83;;
72354;SDS011;60314;55.040;73.076;2022-08-11T15:17:04;125.80;;;52.88;;
72354;SDS011;60314;55.040;73.076;2022-08-11T15:19:35;117.35;;;50.97;;
72354;SDS011;60314;55.040;73.076;2022-08-11T15:22:25;107.60;;;48.60;;
72354;SDS011;60314;55.040;73.076;2022-08-11T15:25:13;106.50;;;46.13;;
72354;SDS011;60314;55.040;73.076;2022-08-11T15:27:40;103.15;;;48.22;;
72354;SDS011;60314;55.040;73.076;2022-08-11T15:30:27;112.05;;;46.20;;
72354;SDS011;60314;55.040;73.076;2022-08-11T15:33:24;100.28;;;44.85;;
72354;SDS011;60314;55.040;73.076;2022-08-11T15:36:12;101.55;;;43.88;;
72354;SDS011;60314;55.040;73.076;2022-08-11T15:39:18;93.25;;;43.67;;
72354;SDS011;60314;55.040;73.076;2022-08-11T15:44:50;98.80;;;43.20;;
72354;SDS011;60314;55.040;73.076;2022-08-11T15:47:49;93.78;;;44.50;;
72354;SDS011;60314;55.040;73.076;2022-08-11T15:50:24;103.95;;;46.13;;
72354;SDS011;60314;55.040;73.076;2022-08-11T15:52:58;98.88;;;46.00;;
72354;SDS011;60314;55.040;73.076;2022-08-11T15:55:54;96.50;;;44.33;;
72354;SDS011;60314;55.040;73.076;2022-08-11T15:58:22;98.93;;;43.53;;
72354;SDS011;60314;55.040;73.076;2022-08-11T16:01:12;104.72;;;44.97;;
72354;SDS011;60314;55.040;73.076;2022-08-11T16:04:00;109.78;;;47.30;;
72354;SDS011;60314;55.040;73.076;2022-08-11T16:09:27;110.53;;;46.08;;
72354;SDS011;60314;55.040;73.076;2022-08-11T16:12:27;103.50;;;46.78;;
72354;SDS011;60314;55.040;73.076;2022-08-11T16:15:03;105.63;;;47.20;;
72354;SDS011;60314;55.040;73.076;2022-08-11T16:17:52;99.45;;;46.35;;
72354;SDS011;60314;55.040;73.076;2022-08-11T16:20:28;92.95;;;43.20;;
72354;SDS011;60314;55.040;73.076;2022-08-11T16:23:01;100.85;;;46.03;;
72354;SDS011;60314;55.040;73.076;2022-08-11T16:25:32;94.80;;;41.85;;
72354;SDS011;60314;55.040;73.076;2022-08-11T16:30:33;78.47;;;36.67;;
72354;SDS011;60314;55.040;73.076;2022-08-11T16:35:55;81.60;;;37.60;;
72354;SDS011;60314;55.040;73.076;2022-08-11T16:38:45;74.90;;;34.38;;
72354;SDS011;60314;55.040;73.076;2022-08-11T16:41:12;83.03;;;37.15;;
72354;SDS011;60314;55.040;73.076;2022-08-11T16:44:03;78.75;;;36.40;;
72354;SDS011;60314;55.040;73.076;2022-08-11T16:46:49;76.32;;;37.22;;
72354;SDS011;60314;55.040;73.076;2022-08-11T16:49:30;76.32;;;35.38;;
72354;SDS011;60314;55.040;73.076;2022-08-11T16:51:59;71.03;;;35.10;;
72354;SDS011;60314;55.040;73.076;2022-08-11T16:54:29;76.18;;;36.28;;
72354;SDS011;60314;55.040;73.076;2022-08-11T16:57:02;70.95;;;34.58;;
72354;SDS011;60314;55.040;73.076;2022-08-11T17:00:00;76.07;;;36.72;;
72354;SDS011;60314;55.040;73.076;2022-08-11T17:02:52;61.70;;;30.85;;
72354;SDS011;60314;55.040;73.076;2022-08-11T17:05:40;70.15;;;32.72;;
72354;SDS011;60314;55.040;73.076;2022-08-11T17:08:41;71.10;;;33.38;;
72354;SDS011;60314;55.040;73.076;2022-08-11T17:11:52;67.85;;;33.05;;
72354;SDS011;60314;55.040;73.076;2022-08-11T17:14:59;62.80;;;31.65;;
72354;SDS011;60314;55.040;73.076;2022-08-11T17:18:05;65.38;;;31.30;;
72354;SDS011;60314;55.040;73.076;2022-08-11T17:20:35;63.60;;;31.27;;
72354;SDS011;60314;55.040;73.076;2022-08-11T17:23:03;61.40;;;31.65;;
72354;SDS011;60314;55.040;73.076;2022-08-11T17:25:51;62.90;;;30.70;;
72354;SDS011;60314;55.040;73.076;2022-08-11T17:28:19;66.07;;;30.92;;
72354;SDS011;60314;55.040;73.076;2022-08-11T17:30:48;64.38;;;31.05;;
72354;SDS011;60314;55.040;73.076;2022-08-11T17:34:05;62.55;;;30.30;;
72354;SDS011;60314;55.040;73.076;2022-08-11T17:36:52;59.28;;;30.15;;
72354;SDS011;60314;55.040;73.076;2022-08-11T17:39:22;66.10;;;31.88;;
72354;SDS011;60314;55.040;73.076;2022-08-11T17:42:12;68.07;;;31.02;;
72354;SDS011;60314;55.040;73.076;2022-08-11T17:45:11;67.93;;;32.40;;
72354;SDS011;60314;55.040;73.076;2022-08-11T17:47:57;67.82;;;32.38;;
72354;SDS011;60314;55.040;73.076;2022-08-11T17:50:46;66.55;;;30.75;;
72354;SDS011;60314;55.040;73.076;2022-08-11T17:53:25;64.85;;;31.35;;
72354;SDS011;60314;55.040;73.076;2022-08-11T17:56:12;60.20;;;30.75;;
72354;SDS011;60314;55.040;73.076;2022-08-11T17:59:05;63.65;;;31.88;;
72354;SDS011;60314;55.040;73.076;2022-08-11T18:02:02;60.50;;;29.13;;
72354;SDS011;60314;55.040;73.076;2022-08-11T18:04:49;59.65;;;30.10;;
72354;SDS011;60314;55.040;73.076;2022-08-11T18:07:17;60.58;;;30.33;;
72354;SDS011;60314;55.040;73.076;2022-08-11T18:10:24;59.20;;;30.20;;
72354;SDS011;60314;55.040;73.076;2022-08-11T18:13:10;60.92;;;30.65;;
72354;SDS011;60314;55.040;73.076;2022-08-11T18:15:56;62.05;;;30.45;;
72354;SDS011;60314;55.040;73.076;2022-08-11T18:18:40;62.65;;;30.63;;
72354;SDS011;60314;55.040;73.076;2022-08-11T18:21:35;68.05;;;31.25;;
72354;SDS011;60314;55.040;73.076;2022-08-11T18:24:22;61.33;;;30.90;;
72354;SDS011;60314;55.040;73.076;2022-08-11T18:27:23;62.03;;;30.60;;
72354;SDS011;60314;55.040;73.076;2022-08-11T18:30:16;64.18;;;31.48;;
72354;SDS011;60314;55.040;73.076;2022-08-11T18:33:08;67.30;;;32.90;;
72354;SDS011;60314;55.040;73.076;2022-08-11T18:35:59;62.30;;;30.02;;
72354;SDS011;60314;55.040;73.076;2022-08-11T18:38:46;63.47;;;31.48;;
72354;SDS011;60314;55.040;73.076;2022-08-11T18:41:34;64.68;;;31.92;;
72354;SDS011;60314;55.040;73.076;2022-08-11T18:44:22;62.40;;;32.13;;
72354;SDS011;60314;55.040;73.076;2022-08-11T18:47:22;65.53;;;31.45;;
72354;SDS011;60314;55.040;73.076;2022-08-11T18:50:12;58.25;;;30.13;;
72354;SDS011;60314;55.040;73.076;2022-08-11T18:53:01;62.47;;;30.80;;
72354;SDS011;60314;55.040;73.076;2022-08-11T18:55:50;65.32;;;31.50;;
72354;SDS011;60314;55.040;73.076;2022-08-11T18:58:36;64.20;;;30.92;;
72354;SDS011;60314;55.040;73.076;2022-08-11T19:04:29;67.38;;;32.80;;
72354;SDS011;60314;55.040;73.076;2022-08-11T19:07:24;70.93;;;32.72;;
72354;SDS011;60314;55.040;73.076;2022-08-11T19:10:10;67.93;;;33.63;;
72354;SDS011;60314;55.040;73.076;2022-08-11T19:12:56;64.13;;;30.67;;
72354;SDS011;60314;55.040;73.076;2022-08-11T19:15:48;60.97;;;30.50;;
72354;SDS011;60314;55.040;73.076;2022-08-11T19:18:33;61.80;;;31.67;;
72354;SDS011;60314;55.040;73.076;2022-08-11T19:21:20;64.40;;;33.03;;